Time;durP1;ratioP1;P1;durP2;ratioP2;P2;SDS_P1;SDS_P2;PMS_P1;PMS_P2;Temp;Humidity;BMP_temperature;BMP_pressure;BME280_temperature;BME280_humidity;BME280_pressure;Samples;Min_cycle;Max_cycle;Signal;HPM_P1;HPM_P2
2021/08/20 00:01:22;;;;;;;4.90;3.80;;;17.30;99.90;;;;;;5109798;28;20457;-68
2021/08/20 00:03:49;;;;;;;5.33;3.97;;;17.40;99.90;;;;;;5110535;28;20936;-68
2021/08/20 00:06:16;;;;;;;5.57;3.30;;;17.40;99.90;;;;;;5110020;28;20544;-72
2021/08/20 00:08:43;;;;;;;5.17;4.00;;;17.30;99.90;;;;;;5110494;28;20441;-68
2021/08/20 00:11:10;;;;;;;6.70;4.20;;;17.30;99.90;;;;;;5113032;28;20453;-68
2021/08/20 00:13:37;;;;;;;6.57;4.20;;;17.30;99.90;;;;;;5114677;28;20567;-68
2021/08/20 00:16:06;;;;;;;4.57;3.50;;;17.30;99.90;;;;;;5113920;28;20449;-68
2021/08/20 00:18:35;;;;;;;5.00;3.77;;;17.30;99.90;;;;;;5114162;27;20936;-68
2021/08/20 00:21:02;;;;;;;4.30;3.60;;;17.30;99.90;;;;;;5113245;28;20913;-68
2021/08/20 00:23:29;;;;;;;6.10;4.53;;;17.30;99.90;;;;;;5114584;28;20448;-68
2021/08/20 00:25:56;;;;;;;5.67;3.80;;;17.30;99.90;;;;;;5113620;28;20441;-68
2021/08/20 00:28:23;;;;;;;5.23;3.77;;;17.30;99.90;;;;;;5114405;28;20463;-68
2021/08/20 00:30:49;;;;;;;4.97;3.70;;;17.20;99.90;;;;;;5113332;28;20469;-68
2021/08/20 00:33:16;;;;;;;5.70;3.67;;;17.20;99.90;;;;;;5114165;28;20909;-68
2021/08/20 00:35:45;;;;;;;5.03;3.63;;;17.30;99.90;;;;;;5113761;28;20452;-69
2021/08/20 00:38:12;;;;;;;5.40;3.40;;;17.30;99.90;;;;;;5114194;28;20437;-69
2021/08/20 00:40:40;;;;;;;5.00;3.90;;;17.40;99.90;;;;;;5113582;28;20553;-68
2021/08/20 00:43:07;;;;;;;5.50;3.93;;;17.30;99.90;;;;;;5112046;28;20900;-68
2021/08/20 00:45:35;;;;;;;4.57;3.90;;;17.20;99.90;;;;;;5113455;28;20445;-68
2021/08/20 00:48:02;;;;;;;6.33;4.63;;;17.20;99.90;;;;;;5113611;28;20821;-68
2021/08/20 00:50:29;;;;;;;7.33;4.40;;;17.20;99.90;;;;;;5113083;28;20475;-68
2021/08/20 00:52:57;;;;;;;7.03;3.97;;;17.10;99.90;;;;;;5114184;28;20448;-69
2021/08/20 00:55:25;;;;;;;6.43;3.90;;;17.10;99.90;;;;;;5113264;28;20459;-69
2021/08/20 00:57:52;;;;;;;5.07;3.60;;;17.10;99.90;;;;;;5113759;28;20447;-68
2021/08/20 01:00:21;;;;;;;5.90;4.30;;;17.20;99.90;;;;;;5112706;28;20518;-68
2021/08/20 01:02:48;;;;;;;5.53;4.07;;;17.20;99.90;;;;;;5113691;28;20441;-68
2021/08/20 01:05:18;;;;;;;5.20;4.00;;;17.20;99.90;;;;;;5113183;28;20448;-68
2021/08/20 01:07:45;;;;;;;4.93;3.90;;;17.10;99.90;;;;;;5113574;28;20468;-68
2021/08/20 01:10:15;;;;;;;5.53;3.93;;;17.10;99.90;;;;;;5112529;28;20499;-68
2021/08/20 01:12:42;;;;;;;6.13;4.57;;;17.10;99.90;;;;;;5113656;28;20501;-68
2021/08/20 01:15:11;;;;;;;8.30;4.70;;;17.20;99.90;;;;;;5113125;28;20481;-68
2021/08/20 01:17:38;;;;;;;6.70;4.60;;;17.30;99.90;;;;;;5113183;28;20459;-69
2021/08/20 01:20:08;;;;;;;5.20;3.73;;;17.30;99.90;;;;;;5112731;28;20706;-68
2021/08/20 01:22:35;;;;;;;4.97;3.83;;;17.30;99.90;;;;;;5112928;28;20827;-67
2021/08/20 01:25:04;;;;;;;7.17;4.77;;;17.30;99.90;;;;;;5112891;28;20442;-67
2021/08/20 01:27:33;;;;;;;6.03;4.60;;;17.30;99.90;;;;;;5113158;28;20441;-67
2021/08/20 01:30:00;;;;;;;5.80;4.97;;;17.10;99.90;;;;;;5112178;28;20442;-67
2021/08/20 01:32:27;;;;;;;6.80;4.00;;;17.20;99.90;;;;;;5112785;28;20502;-67
2021/08/20 01:34:54;;;;;;;6.60;4.47;;;17.20;99.90;;;;;;5112381;28;20477;-68
2021/08/20 01:37:21;;;;;;;4.20;3.30;;;17.20;99.90;;;;;;5113079;28;20453;-67
2021/08/20 01:39:48;;;;;;;3.80;3.10;;;17.20;99.90;;;;;;5112447;28;20765;-67
2021/08/20 01:42:16;;;;;;;4.90;4.00;;;17.20;99.90;;;;;;5112997;28;20546;-67
2021/08/20 01:44:43;;;;;;;5.27;3.90;;;17.20;99.90;;;;;;5112385;28;20459;-67
2021/08/20 01:47:11;;;;;;;5.83;4.33;;;17.20;99.90;;;;;;5113159;28;20528;-67
2021/08/20 01:49:39;;;;;;;6.00;3.80;;;17.10;99.90;;;;;;5111899;28;20455;-67
2021/08/20 01:52:07;;;;;;;4.90;3.80;;;17.10;99.90;;;;;;5113010;28;20461;-67
2021/08/20 01:54:34;;;;;;;5.43;4.10;;;17.20;99.90;;;;;;5112347;28;20495;-67
2021/08/20 01:57:01;;;;;;;6.00;4.30;;;17.20;99.90;;;;;;5112626;28;20817;-67
2021/08/20 01:59:29;;;;;;;6.10;4.37;;;17.10;99.90;;;;;;5111890;28;20524;-67
2021/08/20 02:01:57;;;;;;;5.30;4.23;;;17.20;99.90;;;;;;5112110;28;20476;-67
2021/08/20 02:04:25;;;;;;;5.13;3.90;;;17.20;99.90;;;;;;5111718;28;20529;-67
2021/08/20 02:06:52;;;;;;;6.43;4.47;;;17.10;99.90;;;;;;5112393;28;20769;-67
2021/08/20 02:09:19;;;;;;;6.50;4.30;;;17.10;99.90;;;;;;5111405;28;20455;-67
2021/08/20 02:11:46;;;;;;;8.30;4.53;;;17.10;99.90;;;;;;5112148;28;20497;-67
2021/08/20 02:14:13;;;;;;;7.50;5.27;;;17.10;99.90;;;;;;5111849;28;20477;-67
2021/08/20 02:16:41;;;;;;;6.07;4.40;;;17.20;99.90;;;;;;5112345;28;20445;-68
2021/08/20 02:19:08;;;;;;;6.57;4.30;;;17.20;99.90;;;;;;5110974;28;20469;-67
2021/08/20 02:21:35;;;;;;;6.20;4.20;;;17.20;99.90;;;;;;5112050;28;20471;-67
2021/08/20 02:24:01;;;;;;;4.70;3.20;;;17.20;99.90;;;;;;5112119;28;20477;-67
2021/08/20 02:26:28;;;;;;;6.07;4.40;;;17.20;99.90;;;;;;5111247;28;20455;-67
2021/08/20 02:28:55;;;;;;;4.70;3.70;;;17.10;99.90;;;;;;5111496;28;20545;-68
2021/08/20 02:31:22;;;;;;;7.27;3.90;;;17.20;99.90;;;;;;5111846;28;20461;-67
2021/08/20 02:33:50;;;;;;;5.87;4.23;;;17.20;99.90;;;;;;5111279;28;20485;-68
2021/08/20 02:36:17;;;;;;;4.70;4.07;;;17.20;99.90;;;;;;5111585;28;20446;-67
2021/08/20 02:38:45;;;;;;;5.33;3.87;;;17.20;99.90;;;;;;5111592;28;20449;-67
2021/08/20 02:41:12;;;;;;;6.10;4.10;;;17.20;99.90;;;;;;5110475;28;20465;-67
2021/08/20 02:43:39;;;;;;;5.63;3.70;;;17.10;99.90;;;;;;5111217;28;21322;-67
2021/08/20 02:46:06;;;;;;;5.03;3.67;;;17.20;99.90;;;;;;5111671;28;20445;-67
2021/08/20 02:48:33;;;;;;;5.70;4.40;;;17.20;99.90;;;;;;5111668;28;20844;-68
2021/08/20 02:51:01;;;;;;;5.10;3.87;;;17.20;99.90;;;;;;5110959;28;20478;-67
2021/08/20 02:53:28;;;;;;;5.60;3.90;;;17.20;99.90;;;;;;5111484;28;20449;-68
2021/08/20 02:55:55;;;;;;;4.60;4.13;;;17.20;99.90;;;;;;5110942;28;20508;-68
2021/08/20 02:58:22;;;;;;;5.47;4.30;;;17.20;99.90;;;;;;5111625;28;20536;-67
2021/08/20 03:00:49;;;;;;;4.73;4.23;;;17.20;99.90;;;;;;5110310;28;20461;-67
2021/08/20 03:03:16;;;;;;;6.00;4.27;;;17.20;99.90;;;;;;5111037;28;20452;-68
2021/08/20 03:05:42;;;;;;;5.83;4.40;;;17.20;99.90;;;;;;5110502;28;21026;-67
2021/08/20 03:08:11;;;;;;;5.00;3.83;;;17.30;99.90;;;;;;5111016;28;20474;-67
2021/08/20 03:10:40;;;;;;;5.47;3.70;;;17.20;99.90;;;;;;5110108;28;20945;-67
2021/08/20 03:13:07;;;;;;;5.13;3.70;;;17.20;99.90;;;;;;5110935;28;20459;-67
2021/08/20 03:15:34;;;;;;;8.40;4.90;;;17.10;99.90;;;;;;5110493;28;20480;-67
2021/08/20 03:18:01;;;;;;;6.60;4.50;;;17.10;99.90;;;;;;5110926;28;20450;-67
2021/08/20 03:20:28;;;;;;;4.87;4.13;;;17.10;99.90;;;;;;5109736;28;20479;-67
2021/08/20 03:22:55;;;;;;;7.00;4.07;;;17.10;99.90;;;;;;5110590;28;20582;-67
2021/08/20 03:25:23;;;;;;;5.57;4.50;;;17.20;99.90;;;;;;5110524;28;20447;-68
2021/08/20 03:27:50;;;;;;;6.60;4.70;;;17.20;99.90;;;;;;5110814;28;20471;-68
2021/08/20 03:30:17;;;;;;;6.10;4.17;;;17.20;99.90;;;;;;5109990;28;20838;-67
2021/08/20 03:32:44;;;;;;;5.40;4.07;;;17.20;99.90;;;;;;5110830;28;20525;-67
2021/08/20 03:35:11;;;;;;;5.30;4.30;;;17.20;99.90;;;;;;5110185;28;20592;-67
2021/08/20 03:37:39;;;;;;;5.70;4.30;;;17.30;99.90;;;;;;5110472;28;20445;-67
2021/08/20 03:40:07;;;;;;;5.20;4.27;;;17.20;99.90;;;;;;5109414;28;20485;-67
2021/08/20 03:42:35;;;;;;;8.00;4.60;;;17.20;99.90;;;;;;5110482;28;20452;-68
2021/08/20 03:45:02;;;;;;;6.70;4.80;;;17.30;99.90;;;;;;5110221;28;20433;-67
2021/08/20 03:47:29;;;;;;;8.97;4.60;;;17.30;99.90;;;;;;5110679;28;20449;-67
2021/08/20 03:49:56;;;;;;;4.93;3.67;;;17.30;99.90;;;;;;5109490;28;20590;-67
2021/08/20 03:52:24;;;;;;;5.03;4.30;;;17.20;99.90;;;;;;5110576;28;20447;-67
2021/08/20 03:54:50;;;;;;;4.90;3.90;;;17.10;99.90;;;;;;5110216;28;20914;-67
2021/08/20 03:57:17;;;;;;;4.97;3.70;;;17.10;99.90;;;;;;5110572;28;20473;-67
2021/08/20 03:59:46;;;;;;;6.60;4.20;;;17.10;99.90;;;;;;5110092;28;20484;-68
2021/08/20 04:02:12;;;;;;;5.40;3.80;;;17.00;99.90;;;;;;5110536;28;20556;-67
2021/08/20 04:04:39;;;;;;;5.23;3.93;;;17.00;99.90;;;;;;5110140;28;20444;-67
2021/08/20 04:07:06;;;;;;;5.47;4.10;;;17.00;99.90;;;;;;5110124;28;20473;-68
2021/08/20 04:09:33;;;;;;;5.60;3.87;;;17.10;99.90;;;;;;5109521;28;20453;-68
2021/08/20 04:12:00;;;;;;;5.10;3.83;;;17.10;99.90;;;;;;5110549;28;20467;-67
2021/08/20 04:14:27;;;;;;;5.83;4.00;;;17.10;99.90;;;;;;5109794;28;21009;-67
2021/08/20 04:16:55;;;;;;;6.60;4.13;;;17.10;99.90;;;;;;5110263;28;20445;-67
2021/08/20 04:19:22;;;;;;;9.43;4.93;;;17.10;99.90;;;;;;5109247;28;20547;-68
2021/08/20 04:21:49;;;;;;;4.90;3.80;;;17.00;99.90;;;;;;5109922;28;20559;-68
2021/08/20 04:24:17;;;;;;;6.63;4.33;;;17.00;99.90;;;;;;5109967;28;20840;-68
2021/08/20 04:26:45;;;;;;;6.60;4.53;;;17.00;99.90;;;;;;5109982;28;20503;-68
2021/08/20 04:29:12;;;;;;;6.00;4.20;;;17.00;99.90;;;;;;5109316;28;20876;-68
2021/08/20 04:31:39;;;;;;;5.20;4.70;;;17.10;99.90;;;;;;5110202;28;20509;-68
2021/08/20 04:34:08;;;;;;;7.00;4.77;;;17.20;99.90;;;;;;5109891;28;20448;-68
2021/08/20 04:36:35;;;;;;;5.70;4.30;;;17.20;99.90;;;;;;5109865;28;20544;-68
2021/08/20 04:39:01;;;;;;;7.77;4.43;;;17.20;99.90;;;;;;5109470;28;20834;-67
2021/08/20 04:41:28;;;;;;;5.07;4.10;;;17.20;99.90;;;;;;5109662;28;20467;-68
2021/08/20 04:43:57;;;;;;;4.93;3.73;;;17.10;99.90;;;;;;5110186;28;20449;-68
2021/08/20 04:46:24;;;;;;;4.87;3.63;;;17.10;99.90;;;;;;5109836;28;20441;-68
2021/08/20 04:48:51;;;;;;;5.83;4.20;;;17.20;99.90;;;;;;5109762;28;20449;-68
2021/08/20 04:51:19;;;;;;;4.60;3.57;;;17.20;99.90;;;;;;5109369;28;20472;-68
2021/08/20 04:53:48;;;;;;;5.30;4.47;;;17.20;99.90;;;;;;5109601;28;21018;-67
2021/08/20 04:56:15;;;;;;;4.07;3.43;;;17.20;99.90;;;;;;5111140;28;20485;-68
2021/08/20 04:58:42;;;;;;;5.30;3.50;;;17.20;99.90;;;;;;5113780;28;20455;-68
2021/08/20 05:01:09;;;;;;;5.13;4.17;;;17.20;99.90;;;;;;5112634;28;20475;-67
2021/08/20 05:03:36;;;;;;;4.23;3.17;;;17.20;99.90;;;;;;5113673;28;20451;-68
2021/08/20 05:06:03;;;;;;;7.93;3.87;;;17.20;99.90;;;;;;5112894;28;20453;-68
2021/08/20 05:08:32;;;;;;;6.33;3.93;;;17.20;99.90;;;;;;5113419;28;20954;-68
2021/08/20 05:10:59;;;;;;;6.67;3.80;;;17.30;99.90;;;;;;5112458;28;20975;-68
2021/08/20 05:13:25;;;;;;;4.63;4.13;;;17.30;99.90;;;;;;5113260;28;20548;-69
2021/08/20 05:15:52;;;;;;;4.93;3.57;;;17.40;99.90;;;;;;5112664;28;20479;-68
2021/08/20 05:18:19;;;;;;;6.20;4.20;;;17.40;99.90;;;;;;5113407;28;20472;-68
2021/08/20 05:20:46;;;;;;;6.33;3.97;;;17.50;99.90;;;;;;5112107;28;20504;-68
2021/08/20 05:23:14;;;;;;;6.80;4.13;;;17.60;99.90;;;;;;5113324;28;20448;-68
2021/08/20 05:25:43;;;;;;;4.57;4.17;;;17.50;99.90;;;;;;5112440;28;20699;-67
2021/08/20 05:28:12;;;;;;;6.83;4.57;;;17.40;99.90;;;;;;5112622;28;20875;-68
2021/08/20 05:30:40;;;;;;;5.73;4.07;;;17.50;99.90;;;;;;5112194;28;20784;-68
2021/08/20 05:33:06;;;;;;;6.63;4.17;;;17.60;99.90;;;;;;5113041;28;20445;-68
2021/08/20 05:35:34;;;;;;;4.90;3.27;;;17.70;99.90;;;;;;5112735;28;20575;-69
2021/08/20 05:38:01;;;;;;;6.53;4.63;;;17.80;99.90;;;;;;5112840;28;20935;-68
2021/08/20 05:40:28;;;;;;;5.80;4.57;;;17.90;99.90;;;;;;5111741;28;20469;-68
2021/08/20 05:42:57;;;;;;;6.13;4.00;;;18.10;99.90;;;;;;5112386;28;20441;-68
2021/08/20 05:45:23;;;;;;;7.00;3.83;;;18.20;99.90;;;;;;5112307;28;20437;-68
2021/08/20 05:47:50;;;;;;;4.90;3.40;;;18.40;99.90;;;;;;5112860;28;20449;-68
2021/08/20 05:50:17;;;;;;;8.70;3.63;;;18.50;99.90;;;;;;5111696;28;20457;-68
2021/08/20 05:52:44;;;;;;;6.33;3.73;;;18.60;99.90;;;;;;5112463;28;21022;-68
2021/08/20 05:55:12;;;;;;;5.40;4.30;;;18.70;99.90;;;;;;5112389;28;20961;-68
2021/08/20 05:57:39;;;;;;;5.63;4.10;;;18.70;99.90;;;;;;5112247;28;20769;-68
2021/08/20 06:00:09;;;;;;;6.80;4.40;;;18.80;99.90;;;;;;5111301;28;20484;-68
2021/08/20 06:02:39;;;;;;;4.57;3.50;;;18.80;99.90;;;;;;5112275;28;20441;-68
2021/08/20 06:05:07;;;;;;;6.40;3.83;;;19.00;99.90;;;;;;5111752;28;20532;-68
2021/08/20 06:07:34;;;;;;;8.00;4.57;;;19.10;99.90;;;;;;5111187;28;20957;-69
2021/08/20 06:10:00;;;;;;;8.00;5.57;;;19.10;99.90;;;;;;5111269;28;20467;-68
2021/08/20 06:12:29;;;;;;;6.60;4.60;;;19.30;99.90;;;;;;5112302;28;21034;-68
2021/08/20 06:14:56;;;;;;;5.73;4.20;;;19.30;99.90;;;;;;5112353;28;20481;-68
2021/08/20 06:17:24;;;;;;;7.50;4.80;;;19.40;99.90;;;;;;5112172;28;20540;-68
2021/08/20 06:19:51;;;;;;;5.53;4.30;;;19.40;99.90;;;;;;5111168;28;20898;-69
2021/08/20 06:22:18;;;;;;;6.23;4.40;;;19.50;99.90;;;;;;5111910;28;20528;-68
2021/08/20 06:24:44;;;;;;;6.93;4.50;;;19.60;99.90;;;;;;5111011;28;20445;-69
2021/08/20 06:27:11;;;;;;;6.93;4.40;;;19.70;99.90;;;;;;5111922;28;20537;-68
2021/08/20 06:29:39;;;;;;;6.23;4.40;;;19.90;99.90;;;;;;5111058;28;20456;-68
2021/08/20 06:32:07;;;;;;;8.30;4.23;;;20.00;99.90;;;;;;5111722;28;20457;-65
2021/08/20 06:34:35;;;;;;;7.97;4.70;;;20.10;99.90;;;;;;5111806;28;20441;-67
2021/08/20 06:37:02;;;;;;;7.40;5.27;;;20.30;99.90;;;;;;5111291;28;20953;-67
2021/08/20 06:39:29;;;;;;;6.20;4.53;;;20.50;99.90;;;;;;5110704;28;20448;-67
2021/08/20 06:41:56;;;;;;;5.67;4.40;;;20.50;99.90;;;;;;5109842;28;20547;-67
2021/08/20 06:44:23;;;;;;;6.73;4.80;;;20.70;99.90;;;;;;5110793;28;20766;-67
2021/08/20 06:46:50;;;;;;;9.50;4.60;;;20.80;99.90;;;;;;5111088;28;20469;-68
2021/08/20 06:49:17;;;;;;;8.40;4.93;;;21.00;99.90;;;;;;5110314;28;20441;-67
2021/08/20 06:51:45;;;;;;;7.10;5.60;;;21.00;99.90;;;;;;5110830;28;20851;-68
2021/08/20 06:54:12;;;;;;;6.87;4.40;;;21.00;99.90;;;;;;5111043;28;20452;-68
2021/08/20 06:56:39;;;;;;;6.50;4.20;;;21.10;99.90;;;;;;5111005;28;20492;-68
2021/08/20 06:59:06;;;;;;;5.30;3.83;;;21.10;99.90;;;;;;5110070;28;20452;-67
2021/08/20 07:01:33;;;;;;;6.20;3.80;;;21.20;99.90;;;;;;5110710;28;20847;-68
2021/08/20 07:04:00;;;;;;;8.10;4.37;;;21.10;99.90;;;;;;5110805;28;20449;-67
2021/08/20 07:06:29;;;;;;;4.70;3.43;;;21.10;99.90;;;;;;5110329;28;20446;-67
2021/08/20 07:08:57;;;;;;;7.07;3.67;;;21.00;99.90;;;;;;5110521;28;20506;-68
2021/08/20 07:11:25;;;;;;;5.90;4.27;;;21.00;99.90;;;;;;5110511;28;20477;-67
2021/08/20 07:13:53;;;;;;;6.20;4.80;;;21.00;99.90;;;;;;5110790;28;20441;-67
2021/08/20 07:16:20;;;;;;;7.30;5.53;;;21.00;99.90;;;;;;5109985;28;20509;-68
2021/08/20 07:18:47;;;;;;;6.40;5.10;;;21.00;99.90;;;;;;5110165;28;20453;-68
2021/08/20 07:21:14;;;;;;;6.13;4.67;;;20.90;99.90;;;;;;5110303;28;20493;-68
2021/08/20 07:23:41;;;;;;;8.73;5.87;;;20.90;99.90;;;;;;5110331;28;20524;-68
2021/08/20 07:26:09;;;;;;;8.13;5.83;;;20.80;99.90;;;;;;5110028;28;20437;-67
2021/08/20 07:28:36;;;;;;;9.50;5.30;;;20.70;99.90;;;;;;5110165;28;20441;-68
2021/08/20 07:31:04;;;;;;;8.13;5.23;;;20.50;99.90;;;;;;5109518;28;20475;-67
2021/08/20 07:33:32;;;;;;;8.67;6.13;;;20.60;99.90;;;;;;5110181;28;20441;-68
2021/08/20 07:36:01;;;;;;;13.63;5.83;;;20.40;99.90;;;;;;5109709;28;20480;-67
2021/08/20 07:38:28;;;;;;;7.80;6.00;;;20.40;99.90;;;;;;5110110;28;20449;-67
2021/08/20 07:40:55;;;;;;;6.60;5.63;;;20.40;99.90;;;;;;5109154;28;20469;-67
2021/08/20 07:43:23;;;;;;;9.40;5.30;;;20.50;99.90;;;;;;5110134;28;20798;-68
2021/08/20 07:45:51;;;;;;;8.10;5.60;;;20.60;99.90;;;;;;5110283;28;20447;-68
2021/08/20 07:48:18;;;;;;;8.07;6.23;;;20.60;99.90;;;;;;5110375;28;20442;-68
2021/08/20 07:50:47;;;;;;;10.47;6.03;;;20.60;99.90;;;;;;5109511;28;20567;-68
2021/08/20 07:53:15;;;;;;;8.97;6.00;;;20.80;99.90;;;;;;5109855;28;20545;-68
2021/08/20 07:55:42;;;;;;;9.43;6.17;;;20.90;99.90;;;;;;5109685;28;20475;-68
2021/08/20 07:58:09;;;;;;;11.70;6.60;;;20.90;99.90;;;;;;5110008;28;20556;-68
2021/08/20 08:00:38;;;;;;;9.50;6.97;;;20.90;99.90;;;;;;5109270;28;20835;-68
2021/08/20 08:03:05;;;;;;;9.07;7.70;;;20.80;99.90;;;;;;5108995;28;20809;-68
2021/08/20 08:05:32;;;;;;;7.50;6.37;;;20.70;99.90;;;;;;5109476;28;20200;-69
2021/08/20 08:07:59;;;;;;;7.50;6.70;;;20.80;99.90;;;;;;5110220;28;20444;-67
2021/08/20 08:10:26;;;;;;;9.10;7.10;;;20.90;99.90;;;;;;5109216;28;20851;-68
2021/08/20 08:12:54;;;;;;;9.53;7.00;;;20.90;99.90;;;;;;5110169;28;20459;-67
2021/08/20 08:15:22;;;;;;;8.50;6.80;;;21.00;99.90;;;;;;5109369;28;20449;-67
2021/08/20 08:17:51;;;;;;;8.70;7.00;;;21.10;99.90;;;;;;5110039;28;20869;-67
2021/08/20 08:20:18;;;;;;;8.70;7.57;;;21.10;99.90;;;;;;5109362;28;20610;-68
2021/08/20 08:22:46;;;;;;;9.03;7.60;;;21.10;99.90;;;;;;5109963;28;20484;-68
2021/08/20 08:25:13;;;;;;;9.00;6.33;;;21.20;99.90;;;;;;5110054;28;20449;-68
2021/08/20 08:27:56;;;;;;;7.30;6.60;;;21.20;99.90;;;;;;5109961;28;20441;-68
2021/08/20 08:30:25;;;;;;;9.73;6.63;;;21.30;99.90;;;;;;5109168;28;20480;-68
2021/08/20 08:32:54;;;;;;;10.93;8.10;;;21.40;99.90;;;;;;5113747;28;20445;-68
2021/08/20 08:35:22;;;;;;;11.90;7.80;;;21.30;99.90;;;;;;5113359;28;20832;-68
2021/08/20 08:37:49;;;;;;;9.73;8.77;;;21.30;99.90;;;;;;5113555;28;20481;-68
2021/08/20 08:40:16;;;;;;;9.80;8.80;;;21.30;99.90;;;;;;5113014;28;20461;-68
2021/08/20 08:42:43;;;;;;;10.13;8.77;;;21.50;99.90;;;;;;5113489;28;20946;-68
2021/08/20 08:45:11;;;;;;;9.07;7.67;;;21.50;99.90;;;;;;5113443;28;20449;-68
2021/08/20 08:47:38;;;;;;;9.47;7.50;;;21.70;99.90;;;;;;5113547;28;20864;-68
2021/08/20 08:50:08;;;;;;;9.70;7.60;;;21.90;99.90;;;;;;5112736;28;20535;-68
2021/08/20 08:52:36;;;;;;;8.40;7.10;;;22.10;99.90;;;;;;5113590;28;20536;-68
2021/08/20 08:55:05;;;;;;;10.03;8.30;;;22.30;99.90;;;;;;5113187;28;20448;-67
2021/08/20 08:57:32;;;;;;;9.70;8.70;;;22.70;99.90;;;;;;5113545;28;20519;-68
2021/08/20 08:59:59;;;;;;;8.93;7.37;;;23.20;99.90;;;;;;5112625;28;20539;-68
2021/08/20 09:02:27;;;;;;;8.83;7.40;;;23.40;99.90;;;;;;5113614;28;20493;-68
2021/08/20 09:04:59;;;;;;;7.60;6.90;;;23.20;99.90;;;;;;5113299;28;20441;-68
2021/08/20 09:07:29;;;;;;;7.97;6.13;;;23.20;99.90;;;;;;5113308;28;20927;-68
2021/08/20 09:10:19;;;;;;;8.27;6.80;;;23.30;99.90;;;;;;5112638;28;20480;-67
2021/08/20 09:12:58;;;;;;;10.20;7.20;;;23.30;99.90;;;;;;5113401;28;20454;-68
2021/08/20 09:15:26;;;;;;;8.23;6.43;;;23.40;99.90;;;;;;5112755;28;20954;-68
2021/08/20 09:17:54;;;;;;;9.13;6.60;;;23.40;99.90;;;;;;5113004;28;20544;-67
2021/08/20 09:20:24;;;;;;;8.90;6.50;;;23.30;99.90;;;;;;5114363;28;20563;-67
2021/08/20 09:22:54;;;;;;;9.57;7.63;;;23.30;99.90;;;;;;5113250;28;20883;-67
2021/08/20 09:25:36;;;;;;;8.43;6.80;;;23.30;99.90;;;;;;5112411;28;20441;-67
2021/08/20 09:28:10;;;;;;;6.63;5.53;;;22.80;99.90;;;;;;5113347;28;20536;-66
2021/08/20 09:30:37;;;;;;;8.80;6.40;;;22.60;99.90;;;;;;5112104;28;20482;-67
2021/08/20 09:33:11;;;;;;;6.07;4.83;;;22.70;99.90;;;;;;5112960;28;20450;-66
2021/08/20 09:35:39;;;;;;;7.70;5.20;;;22.80;99.90;;;;;;5112347;28;20459;-68
2021/08/20 09:38:11;;;;;;;6.60;5.30;;;23.20;99.90;;;;;;5112516;28;20523;-68
2021/08/20 09:40:39;;;;;;;6.47;5.77;;;23.40;99.90;;;;;;5112155;28;20457;-68
2021/08/20 09:43:18;;;;;;;6.70;5.90;;;23.30;99.90;;;;;;5112608;28;20868;-68
2021/08/20 09:46:06;;;;;;;6.37;5.43;;;23.20;99.90;;;;;;5112306;28;20525;-68
2021/08/20 09:48:51;;;;;;;6.83;5.57;;;23.40;99.90;;;;;;5112498;28;20433;-68
2021/08/20 09:51:38;;;;;;;6.70;5.23;;;23.70;99.90;;;;;;5111896;28;20462;-68
2021/08/20 09:54:08;;;;;;;6.90;5.90;;;24.40;99.90;;;;;;5112172;28;20844;-68
2021/08/20 09:56:36;;;;;;;6.90;6.10;;;25.00;99.90;;;;;;5111844;28;20860;-68
2021/08/20 09:59:05;;;;;;;6.20;4.23;;;25.40;99.90;;;;;;5111984;28;20441;-68
2021/08/20 10:01:34;;;;;;;5.53;4.47;;;25.50;99.90;;;;;;5112191;28;20552;-68
2021/08/20 10:04:03;;;;;;;7.50;5.60;;;25.90;99.90;;;;;;5112432;28;20904;-69
2021/08/20 10:06:32;;;;;;;5.63;5.03;;;26.00;99.90;;;;;;5111923;28;21091;-68
2021/08/20 10:09:03;;;;;;;6.60;5.03;;;26.10;99.90;;;;;;5111420;28;20449;-68
2021/08/20 10:11:34;;;;;;;5.53;4.37;;;26.40;99.90;;;;;;5112175;28;20496;-68
2021/08/20 10:14:02;;;;;;;7.43;4.90;;;26.20;99.90;;;;;;5112005;28;20456;-69
2021/08/20 10:16:32;;;;;;;6.63;5.93;;;25.80;99.90;;;;;;5111472;28;20481;-68
2021/08/20 10:19:00;;;;;;;5.87;4.73;;;25.10;99.90;;;;;;5111309;28;20456;-68
2021/08/20 10:21:27;;;;;;;4.97;4.47;;;24.90;99.90;;;;;;5111556;28;20462;-68
2021/08/20 10:23:54;;;;;;;5.97;5.10;;;24.40;99.90;;;;;;5112119;27;20457;-68
2021/08/20 10:26:22;;;;;;;5.90;4.80;;;23.80;99.90;;;;;;5111739;28;20454;-68
2021/08/20 10:28:51;;;;;;;6.40;5.13;;;23.40;99.90;;;;;;5112314;28;20792;-68
2021/08/20 10:31:20;;;;;;;5.40;4.80;;;23.30;99.90;;;;;;5111143;28;20465;-69
2021/08/20 10:33:47;;;;;;;5.13;4.40;;;23.70;99.90;;;;;;5112036;28;20429;-69
2021/08/20 10:36:14;;;;;;;7.53;5.80;;;24.40;99.90;;;;;;5111489;28;20556;-67
2021/08/20 10:38:44;;;;;;;6.03;4.90;;;25.10;99.90;;;;;;5111733;28;20469;-67
2021/08/20 10:41:16;;;;;;;5.00;3.73;;;25.70;99.90;;;;;;5111066;28;20536;-68
2021/08/20 10:44:04;;;;;;;6.73;4.30;;;26.00;99.90;;;;;;5111357;28;20437;-68
2021/08/20 10:46:58;;;;;;;5.80;4.10;;;25.80;99.90;;;;;;5111083;28;20502;-68
2021/08/20 10:49:26;;;;;;;4.83;3.70;;;25.90;99.90;;;;;;5110450;28;21044;-69
2021/08/20 10:52:00;;;;;;;4.57;3.60;;;26.10;99.90;;;;;;5111293;28;20847;-69
2021/08/20 10:55:08;;;;;;;4.60;4.10;;;26.30;99.90;;;;;;5110276;28;20529;-68
2021/08/20 10:57:55;;;;;;;5.43;4.80;;;26.60;99.90;;;;;;5110992;28;20461;-68
2021/08/20 11:00:28;;;;;;;5.37;4.00;;;27.00;98.90;;;;;;5110300;28;20545;-68
2021/08/20 11:02:56;;;;;;;4.63;3.57;;;27.50;99.10;;;;;;5110984;28;20939;-69
2021/08/20 11:05:45;;;;;;;4.77;4.27;;;27.00;97.60;;;;;;5110217;28;20449;-69
2021/08/20 11:08:43;;;;;;;4.80;4.00;;;25.90;98.80;;;;;;5111194;28;20884;-68
2021/08/20 11:11:48;;;;;;;4.60;3.97;;;25.20;99.40;;;;;;5110467;28;20457;-68
2021/08/20 11:14:30;;;;;;;5.40;3.00;;;24.80;99.90;;;;;;5110879;28;20473;-68
2021/08/20 11:16:58;;;;;;;5.10;4.10;;;24.60;99.90;;;;;;5110685;28;20477;-68
2021/08/20 11:19:54;;;;;;;4.60;3.90;;;24.40;99.90;;;;;;5109945;28;20453;-69
2021/08/20 11:22:24;;;;;;;5.20;3.70;;;24.90;99.90;;;;;;5110355;28;20971;-69
2021/08/20 11:25:12;;;;;;;5.63;3.90;;;26.20;99.90;;;;;;5110343;28;20532;-69
2021/08/20 11:27:40;;;;;;;4.97;3.83;;;27.40;97.50;;;;;;5110636;28;20819;-68
2021/08/20 11:30:08;;;;;;;5.70;4.10;;;27.60;97.20;;;;;;5109376;28;20449;-69
2021/08/20 11:32:36;;;;;;;4.80;3.20;;;28.10;96.80;;;;;;5110167;28;20448;-69
2021/08/20 11:35:03;;;;;;;4.07;3.40;;;28.60;95.00;;;;;;5110313;28;20875;-69
2021/08/20 11:37:30;;;;;;;4.10;3.40;;;28.40;95.60;;;;;;5110510;27;20481;-69
2021/08/20 11:40:02;;;;;;;3.30;2.97;;;27.40;95.10;;;;;;5109423;28;20939;-68
2021/08/20 11:42:29;;;;;;;6.53;3.60;;;26.50;96.40;;;;;;5110167;28;20532;-69
2021/08/20 11:44:56;;;;;;;7.10;3.70;;;26.50;96.90;;;;;;5109505;28;20536;-69
2021/08/20 11:47:23;;;;;;;4.87;3.50;;;26.60;96.60;;;;;;5110316;28;20456;-69
2021/08/20 11:49:57;;;;;;;4.87;4.10;;;27.10;97.00;;;;;;5109542;28;20445;-69
2021/08/20 11:52:24;;;;;;;4.33;3.80;;;26.60;96.40;;;;;;5110262;28;20429;-69
2021/08/20 11:54:51;;;;;;;5.50;3.53;;;26.30;97.20;;;;;;5109738;28;20449;-69
2021/08/20 11:57:18;;;;;;;4.00;3.60;;;26.10;97.80;;;;;;5110090;28;20473;-69
2021/08/20 11:59:54;;;;;;;4.60;4.07;;;26.50;97.80;;;;;;5109066;28;20449;-69
2021/08/20 12:02:21;;;;;;;5.70;3.70;;;27.50;96.50;;;;;;5109954;28;20429;-69
2021/08/20 12:04:48;;;;;;;5.30;3.90;;;27.60;96.40;;;;;;5109178;28;20609;-69
2021/08/20 12:07:34;;;;;;;4.90;4.10;;;28.10;94.70;;;;;;5109702;28;20446;-69
2021/08/20 12:10:01;;;;;;;4.70;3.70;;;28.40;93.70;;;;;;5108872;28;20437;-69
2021/08/20 12:12:33;;;;;;;4.57;3.50;;;28.90;93.90;;;;;;5110100;28;20449;-69
2021/08/20 12:15:00;;;;;;;4.40;3.57;;;29.30;92.80;;;;;;5109602;28;20475;-68
2021/08/20 12:17:31;;;;;;;5.10;3.80;;;29.50;92.70;;;;;;5109828;28;20568;-69
2021/08/20 12:19:58;;;;;;;4.87;3.70;;;29.60;91.50;;;;;;5108874;28;20651;-69
2021/08/20 12:22:36;;;;;;;3.80;3.40;;;29.80;91.90;;;;;;5109671;28;20445;-70
2021/08/20 12:25:15;;;;;;;4.77;3.47;;;30.30;93.10;;;;;;5109265;28;20456;-67
2021/08/20 12:27:45;;;;;;;3.73;3.23;;;31.60;92.20;;;;;;5109663;28;20422;-67
2021/08/20 12:30:14;;;;;;;5.50;3.63;;;32.80;82.40;;;;;;5108864;28;20501;-67
2021/08/20 12:32:42;;;;;;;3.97;3.50;;;32.60;81.70;;;;;;5109705;28;20811;-67
2021/08/20 12:35:15;;;;;;;4.50;3.23;;;32.40;82.70;;;;;;5109167;28;20447;-67
2021/08/20 12:37:59;;;;;;;6.07;3.80;;;31.60;83.20;;;;;;5109994;28;20514;-67
2021/08/20 12:40:35;;;;;;;5.87;3.57;;;31.20;85.00;;;;;;5108774;28;20472;-68
2021/08/20 12:43:02;;;;;;;6.63;3.37;;;31.60;83.90;;;;;;5107727;28;20437;-68
2021/08/20 12:45:29;;;;;;;4.87;3.40;;;31.80;83.80;;;;;;5109712;28;20449;-68
2021/08/20 12:48:03;;;;;;;4.57;3.17;;;31.60;81.30;;;;;;5109767;28;20441;-68
2021/08/20 12:50:31;;;;;;;4.47;3.40;;;31.10;82.40;;;;;;5108963;28;20560;-68
2021/08/20 12:53:04;;;;;;;5.60;3.13;;;31.80;82.50;;;;;;5109611;28;20442;-68
2021/08/20 12:55:33;;;;;;;5.00;3.07;;;32.10;80.00;;;;;;5108967;28;20457;-68